Time,TemperatureF,DewpointF,PressureIn,WindDirection,WindDirectionDegrees,WindSpeedMPH,WindSpeedGustMPH,Humidity,HourlyPrecipIn,Conditions,Clouds,dailyrainin,SoftwareType,DateUTC
2013-11-15 00:09:00,42.3,29.8,30.05,SSW,212,1.0,3.0,61,0.00,,,0.00,VWS V14.01,2013-11-15 05:09:00,
2013-11-15 00:19:00,42.3,30.2,30.05,WNW,298,2.0,4.0,62,0.00,,,0.00,VWS V14.01,2013-11-15 05:19:00,
2013-11-15 00:29:00,42.5,30.4,30.05,ESE,112,1.0,4.0,62,0.00,,,0.00,VWS V14.01,2013-11-15 05:29:00,
2013-11-15 00:39:00,42.7,30.2,30.05,SW,236,1.0,6.0,61,0.00,,,0.00,VWS V14.01,2013-11-15 05:39:00,
2013-11-15 00:49:00,42.9,30.0,30.05,SW,225,2.0,4.0,60,0.00,,,0.00,VWS V14.01,2013-11-15 05:49:00,
2013-11-15 00:59:00,42.8,29.9,30.05,SW,227,1.0,4.0,60,0.00,,,0.00,VWS V14.01,2013-11-15 05:59:00,
2013-11-15 01:09:00,42.8,30.3,30.05,West,261,0.0,3.0,61,0.00,,,0.00,VWS V14.01,2013-11-15 06:09:00,
2013-11-15 01:19:00,42.5,30.0,30.05,WSW,252,3.0,4.0,61,0.00,,,0.00,VWS V14.01,2013-11-15 06:19:00,
2013-11-15 01:29:00,42.0,29.9,30.06,West,273,0.0,3.0,62,0.00,,,0.00,VWS V14.01,2013-11-15 06:29:00,
2013-11-15 01:39:00,41.6,29.6,30.06,WSW,244,1.0,3.0,62,0.00,,,0.00,VWS V14.01,2013-11-15 06:39:00,
2013-11-15 01:49:00,41.5,29.9,30.06,WSW,251,1.0,2.0,63,0.00,,,0.00,VWS V14.01,2013-11-15 06:49:00,
2013-11-15 01:59:00,41.5,29.9,30.06,SSE,157,1.0,4.0,63,0.00,,,0.00,VWS V14.01,2013-11-15 06:59:00,
2013-11-15 02:09:00,41.5,29.9,30.06,SSW,212,1.0,3.0,63,0.00,,,0.00,VWS V14.01,2013-11-15 07:09:00,
2013-11-15 02:19:00,41.1,29.9,30.06,ESE,111,0.0,2.0,64,0.00,,,0.00,VWS V14.01,2013-11-15 07:19:00,
2013-11-15 02:29:00,40.1,29.3,30.06,SE,124,0.0,1.0,65,0.00,,,0.00,VWS V14.01,2013-11-15 07:29:00,
2013-11-15 02:39:00,39.2,29.2,30.06,SE,126,1.0,2.0,67,0.00,,,0.00,VWS V14.01,2013-11-15 07:39:00,
2013-11-15 02:49:00,38.4,28.8,30.06,SE,126,0.0,1.0,68,0.00,,,0.00,VWS V14.01,2013-11-15 07:49:00,
2013-11-15 02:59:00,37.7,29.2,30.07,SW,233,1.0,1.0,71,0.00,,,0.00,VWS V14.01,2013-11-15 07:59:00,
2013-11-15 03:09:00,36.9,28.7,30.07,SW,233,0.0,1.0,72,0.00,,,0.00,VWS V14.01,2013-11-15 08:09:00,
2013-11-15 03:19:00,36.5,28.7,30.07,SW,233,1.0,1.0,73,0.00,,,0.00,VWS V14.01,2013-11-15 08:19:00,
2013-11-15 03:29:00,36.2,28.7,30.06,SW,233,0.0,1.0,74,0.00,,,0.00,VWS V14.01,2013-11-15 08:29:00,
2013-11-15 03:39:00,35.9,28.8,30.06,SW,233,0.0,1.0,75,0.00,,,0.00,VWS V14.01,2013-11-15 08:39:00,
2013-11-15 03:49:00,35.4,28.6,30.07,SW,233,0.0,0.0,76,0.00,,,0.00,VWS V14.01,2013-11-15 08:49:00,
2013-11-15 03:59:00,34.8,28.3,30.07,SW,233,0.0,0.0,77,0.00,,,0.00,VWS V14.01,2013-11-15 08:59:00,
2013-11-15 04:09:00,34.5,28.7,30.07,SW,233,0.0,0.0,79,0.00,,,0.00,VWS V14.01,2013-11-15 09:09:00,
2013-11-15 04:19:00,34.1,28.3,30.07,SW,233,0.0,1.0,79,0.00,,,0.00,VWS V14.01,2013-11-15 09:19:00,
2013-11-15 04:29:00,33.8,28.3,30.07,SW,233,0.0,0.0,80,0.00,,,0.00,VWS V14.01,2013-11-15 09:29:00,
2013-11-15 04:39:00,33.8,28.3,30.07,SW,233,0.0,0.0,80,0.00,,,0.00,VWS V14.01,2013-11-15 09:39:00,
2013-11-15 04:49:00,33.7,28.2,30.07,SW,233,0.0,1.0,80,0.00,,,0.00,VWS V14.01,2013-11-15 09:49:00,
2013-11-15 04:59:00,33.8,28.3,30.07,SW,233,0.0,1.0,80,0.00,,,0.00,VWS V14.01,2013-11-15 09:59:00,
2013-11-15 05:09:00,33.7,28.2,30.07,SW,233,0.0,1.0,80,0.00,,,0.00,VWS V14.01,2013-11-15 10:09:00,
2013-11-15 05:19:00,33.5,28.3,30.07,SW,233,0.0,0.0,81,0.00,,,0.00,VWS V14.01,2013-11-15 10:19:00,
2013-11-15 05:29:00,33.2,28.3,30.07,SW,233,0.0,1.0,82,0.00,,,0.00,VWS V14.01,2013-11-15 10:29:00,
2013-11-15 05:39:00,33.0,28.1,30.07,SW,233,0.0,1.0,82,0.00,,,0.00,VWS V14.01,2013-11-15 10:39:00,
2013-11-15 05:49:00,32.7,28.1,30.07,SW,233,0.0,1.0,83,0.00,,,0.00,VWS V14.01,2013-11-15 10:49:00,
2013-11-15 05:59:00,32.5,27.9,30.08,SW,233,0.0,1.0,83,0.00,,,0.00,VWS V14.01,2013-11-15 10:59:00,
2013-11-15 06:09:00,32.4,27.8,30.08,SW,233,0.0,1.0,83,0.00,,,0.00,VWS V14.01,2013-11-15 11:09:00,
2013-11-15 06:19:00,32.4,28.1,30.09,SW,233,0.0,0.0,84,0.00,,,0.00,VWS V14.01,2013-11-15 11:19:00,
2013-11-15 06:29:00,32.4,28.1,30.09,SW,233,0.0,1.0,84,0.00,,,0.00,VWS V14.01,2013-11-15 11:29:00,
2013-11-15 06:39:00,32.4,28.4,30.09,SW,233,0.0,1.0,85,0.00,,,0.00,VWS V14.01,2013-11-15 11:39:00,
2013-11-15 06:49:00,32.3,28.6,30.09,SW,233,0.0,1.0,86,0.00,,,0.00,VWS V14.01,2013-11-15 11:49:00,
2013-11-15 06:59:00,32.2,28.5,30.09,SW,233,0.0,1.0,86,0.00,,,0.00,VWS V14.01,2013-11-15 11:59:00,
2013-11-15 07:09:00,32.1,28.7,30.09,SW,233,0.0,1.0,87,0.00,,,0.00,VWS V14.01,2013-11-15 12:09:00,
2013-11-15 07:19:00,32.3,29.1,30.10,SW,233,0.0,1.0,88,0.00,,,0.00,VWS V14.01,2013-11-15 12:19:00,
2013-11-15 07:29:00,32.7,29.5,30.10,SW,233,0.0,1.0,88,0.00,,,0.00,VWS V14.01,2013-11-15 12:29:00,
2013-11-15 07:39:00,32.9,30.0,30.10,SW,233,0.0,1.0,89,0.00,,,0.00,VWS V14.01,2013-11-15 12:39:00,
2013-11-15 07:49:00,33.3,30.4,30.09,SW,233,0.0,1.0,89,0.00,,,0.00,VWS V14.01,2013-11-15 12:49:00,
2013-11-15 07:59:00,34.0,31.4,30.10,SW,233,0.0,1.0,90,0.00,,,0.00,VWS V14.01,2013-11-15 12:59:00,
2013-11-15 08:09:00,35.0,32.4,30.10,SW,233,0.0,2.0,90,0.00,,,0.00,VWS V14.01,2013-11-15 13:09:00,
2013-11-15 08:19:00,36.6,34.0,30.10,SW,235,0.0,2.0,90,0.00,,,0.00,VWS V14.01,2013-11-15 13:19:00,
2013-11-15 08:29:00,38.4,35.5,30.10,WSW,258,1.0,3.0,89,0.00,,,0.00,VWS V14.01,2013-11-15 13:29:00,
2013-11-15 08:39:00,40.3,36.8,30.10,SW,230,2.0,3.0,87,0.00,,,0.00,VWS V14.01,2013-11-15 13:39:00,
2013-11-15 08:49:00,42.2,37.4,30.10,SW,227,2.0,3.0,83,0.00,,,0.00,VWS V14.01,2013-11-15 13:49:00,
2013-11-15 08:59:00,43.5,37.4,30.10,WSW,254,1.0,3.0,79,0.00,,,0.00,VWS V14.01,2013-11-15 13:59:00,
2013-11-15 09:09:00,44.3,37.9,30.10,WSW,242,1.0,3.0,78,0.00,,,0.00,VWS V14.01,2013-11-15 14:09:00,
2013-11-15 09:19:00,45.3,38.2,30.11,WSW,253,2.0,3.0,76,0.00,,,0.00,VWS V14.01,2013-11-15 14:19:00,
2013-11-15 09:29:00,46.0,38.2,30.11,WSW,257,1.0,3.0,74,0.00,,,0.00,VWS V14.01,2013-11-15 14:29:00,
2013-11-15 09:39:00,47.0,38.5,30.11,WNW,282,0.0,2.0,72,0.00,,,0.00,VWS V14.01,2013-11-15 14:39:00,
2013-11-15 09:49:00,48.0,38.7,30.11,North,9,1.0,6.0,70,0.00,,,0.00,VWS V14.01,2013-11-15 14:49:00,
2013-11-15 09:59:00,48.8,39.8,30.11,West,262,2.0,4.0,71,0.00,,,0.00,VWS V14.01,2013-11-15 14:59:00,
2013-11-15 10:09:00,49.7,40.7,30.11,West,267,0.0,6.0,71,0.00,,,0.00,VWS V14.01,2013-11-15 15:09:00,
2013-11-15 10:19:00,50.1,41.1,30.11,North,360,1.0,3.0,71,0.00,,,0.00,VWS V14.01,2013-11-15 15:19:00,
2013-11-15 10:29:00,50.4,41.4,30.10,West,280,2.0,4.0,71,0.00,,,0.00,VWS V14.01,2013-11-15 15:29:00,
2013-11-15 10:39:00,50.8,41.4,30.10,WSW,250,0.0,4.0,70,0.00,,,0.00,VWS V14.01,2013-11-15 15:39:00,
2013-11-15 10:49:00,51.2,41.4,30.10,NNE,16,1.0,4.0,69,0.00,,,0.00,VWS V14.01,2013-11-15 15:49:00,
2013-11-15 10:59:00,51.5,41.7,30.09,WSW,249,3.0,5.0,69,0.00,,,0.00,VWS V14.01,2013-11-15 15:59:00,
2013-11-15 11:09:00,52.1,41.9,30.09,WSW,252,1.0,6.0,68,0.00,,,0.00,VWS V14.01,2013-11-15 16:09:00,
2013-11-15 11:19:00,52.5,41.1,30.09,WSW,253,2.0,6.0,65,0.00,,,0.00,VWS V14.01,2013-11-15 16:19:00,
2013-11-15 11:29:00,52.9,41.1,30.09,NNE,32,2.0,5.0,64,0.00,,,0.00,VWS V14.01,2013-11-15 16:29:00,
2013-11-15 11:39:00,52.9,40.2,30.09,WSW,257,1.0,4.0,62,0.00,,,0.00,VWS V14.01,2013-11-15 16:39:00,
2013-11-15 11:49:00,53.0,40.8,30.08,ENE,63,1.0,5.0,63,0.00,,,0.00,VWS V14.01,2013-11-15 16:49:00,
2013-11-15 11:59:00,53.2,40.5,30.08,WNW,290,2.0,4.0,62,0.00,,,0.00,VWS V14.01,2013-11-15 16:59:00,
2013-11-15 12:09:00,53.2,40.1,30.08,NE,46,1.0,4.0,61,0.00,,,0.00,VWS V14.01,2013-11-15 17:09:00,
2013-11-15 12:19:00,53.2,40.5,30.07,SE,132,2.0,4.0,62,0.00,,,0.00,VWS V14.01,2013-11-15 17:19:00,
2013-11-15 12:29:00,53.2,41.3,30.06,West,275,1.0,4.0,64,0.00,,,0.00,VWS V14.01,2013-11-15 17:29:00,
2013-11-15 12:39:00,53.0,41.2,30.06,WSW,240,2.0,5.0,64,0.00,,,0.00,VWS V14.01,2013-11-15 17:39:00,
2013-11-15 12:49:00,53.0,41.2,30.06,NE,38,0.0,5.0,64,0.00,,,0.00,VWS V14.01,2013-11-15 17:49:00,
2013-11-15 12:59:00,52.9,41.1,30.06,West,267,2.0,4.0,64,0.00,,,0.00,VWS V14.01,2013-11-15 17:59:00,
2013-11-15 13:09:00,52.9,41.5,30.06,WNW,299,1.0,4.0,65,0.00,,,0.00,VWS V14.01,2013-11-15 18:09:00,
2013-11-15 13:19:00,52.7,40.9,30.05,West,267,1.0,4.0,64,0.00,,,0.00,VWS V14.01,2013-11-15 18:19:00,
2013-11-15 13:29:00,52.6,41.6,30.04,NW,311,2.0,5.0,66,0.00,,,0.00,VWS V14.01,2013-11-15 18:29:00,
2013-11-15 13:39:00,52.7,41.3,30.04,NW,313,2.0,4.0,65,0.00,,,0.00,VWS V14.01,2013-11-15 18:39:00,
2013-11-15 13:49:00,52.7,40.9,30.04,NE,48,2.0,5.0,64,0.00,,,0.00,VWS V14.01,2013-11-15 18:49:00,
2013-11-15 13:59:00,52.9,40.7,30.04,West,278,0.0,4.0,63,0.00,,,0.00,VWS V14.01,2013-11-15 18:59:00,
2013-11-15 14:09:00,52.9,40.7,30.04,NW,317,1.0,4.0,63,0.00,,,0.00,VWS V14.01,2013-11-15 19:09:00,
2013-11-15 14:19:00,52.9,40.2,30.04,NW,320,1.0,4.0,62,0.00,,,0.00,VWS V14.01,2013-11-15 19:19:00,
2013-11-15 14:29:00,52.7,40.5,30.04,West,276,2.0,5.0,63,0.00,,,0.00,VWS V14.01,2013-11-15 19:29:00,
2013-11-15 14:39:00,52.5,39.9,30.04,NNE,29,2.0,5.0,62,0.00,,,0.00,VWS V14.01,2013-11-15 19:39:00,
2013-11-15 14:49:00,52.3,39.7,30.05,NW,307,2.0,4.0,62,0.00,,,0.00,VWS V14.01,2013-11-15 19:49:00,
2013-11-15 14:59:00,52.1,39.5,30.05,NNW,344,1.0,4.0,62,0.00,,,0.00,VWS V14.01,2013-11-15 19:59:00,
2013-11-15 15:09:00,51.9,39.7,30.05,West,263,2.0,4.0,63,0.00,,,0.00,VWS V14.01,2013-11-15 20:09:00,
2013-11-15 15:19:00,51.8,40.8,30.04,SW,222,2.0,4.0,66,0.00,,,0.00,VWS V14.01,2013-11-15 20:19:00,
2013-11-15 15:29:00,51.6,41.0,30.04,NE,34,1.0,4.0,67,0.00,,,0.00,VWS V14.01,2013-11-15 20:29:00,
2013-11-15 15:39:00,51.4,41.2,30.04,South,182,0.0,4.0,68,0.00,,,0.00,VWS V14.01,2013-11-15 20:39:00,
2013-11-15 15:49:00,51.1,41.3,30.04,ENE,74,0.0,3.0,69,0.00,,,0.00,VWS V14.01,2013-11-15 20:49:00,
2013-11-15 15:59:00,50.7,41.3,30.04,ENE,71,1.0,3.0,70,0.00,,,0.00,VWS V14.01,2013-11-15 20:59:00,
2013-11-15 16:09:00,50.3,41.3,30.04,NW,321,0.0,2.0,71,0.00,,,0.00,VWS V14.01,2013-11-15 21:09:00,
2013-11-15 16:19:00,49.8,41.2,30.04,East,82,0.0,2.0,72,0.00,,,0.00,VWS V14.01,2013-11-15 21:19:00,
2013-11-15 16:29:00,49.1,40.8,30.05,North,360,2.0,2.0,73,0.00,,,0.00,VWS V14.01,2013-11-15 21:29:00,
2013-11-15 16:39:00,48.6,40.7,30.05,North,351,0.0,2.0,74,0.00,,,0.00,VWS V14.01,2013-11-15 21:39:00,
2013-11-15 16:49:00,48.0,40.5,30.05,NNW,336,0.0,2.0,75,0.00,,,0.00,VWS V14.01,2013-11-15 21:49:00,
2013-11-15 16:59:00,47.3,40.5,30.05,NNE,32,0.0,2.0,77,0.00,,,0.00,VWS V14.01,2013-11-15 21:59:00,
2013-11-15 17:09:00,46.7,39.9,30.05,NNE,32,0.0,1.0,77,0.00,,,0.00,VWS V14.01,2013-11-15 22:09:00,
2013-11-15 17:19:00,45.9,39.4,30.05,NNE,32,0.0,1.0,78,0.00,,,0.00,VWS V14.01,2013-11-15 22:19:00,
2013-11-15 17:29:00,45.1,38.7,30.05,NNE,32,0.0,1.0,78,0.00,,,0.00,VWS V14.01,2013-11-15 22:29:00,
2013-11-15 17:39:00,44.3,38.5,30.05,NNE,32,0.0,1.0,80,0.00,,,0.00,VWS V14.01,2013-11-15 22:39:00,
2013-11-15 17:49:00,43.4,38.0,30.06,NNE,32,0.0,1.0,81,0.00,,,0.00,VWS V14.01,2013-11-15 22:49:00,
2013-11-15 17:59:00,42.6,37.5,30.05,NNE,32,0.0,1.0,82,0.00,,,0.00,VWS V14.01,2013-11-15 22:59:00,
2013-11-15 18:09:00,41.8,37.0,30.05,NNE,32,0.0,1.0,83,0.00,,,0.00,VWS V14.01,2013-11-15 23:09:00,
2013-11-15 18:19:00,41.0,36.5,30.06,NNE,32,0.0,1.0,84,0.00,,,0.00,VWS V14.01,2013-11-15 23:19:00,
2013-11-15 18:29:00,40.4,36.3,30.05,NNE,32,0.0,1.0,85,0.00,,,0.00,VWS V14.01,2013-11-15 23:29:00,
2013-11-15 18:39:00,40.0,35.9,30.05,NNE,32,0.0,1.0,85,0.00,,,0.00,VWS V14.01,2013-11-15 23:39:00,
2013-11-15 18:49:00,39.4,35.9,30.05,NNE,32,0.0,1.0,87,0.00,,,0.00,VWS V14.01,2013-11-15 23:49:00,
2013-11-15 18:59:00,39.0,35.8,30.05,NNE,32,0.0,1.0,88,0.00,,,0.00,VWS V14.01,2013-11-15 23:59:00,
2013-11-15 19:09:00,38.7,35.5,30.05,NNE,32,0.0,0.0,88,0.00,,,0.00,VWS V14.01,2013-11-16 00:09:00,
2013-11-15 19:19:00,38.4,35.5,30.05,NNE,32,0.0,1.0,89,0.00,,,0.00,VWS V14.01,2013-11-16 00:19:00,
2013-11-15 19:29:00,38.1,35.2,30.05,NNE,32,0.0,1.0,89,0.00,,,0.00,VWS V14.01,2013-11-16 00:29:00,
2013-11-15 19:39:00,37.8,35.1,30.05,NNE,32,0.0,1.0,90,0.00,,,0.00,VWS V14.01,2013-11-16 00:39:00,
2013-11-15 19:49:00,37.6,34.9,30.05,NNE,32,0.0,0.0,90,0.00,,,0.00,VWS V14.01,2013-11-16 00:49:00,
2013-11-15 19:59:00,37.2,34.5,30.06,NNE,32,0.0,1.0,90,0.00,,,0.00,VWS V14.01,2013-11-16 00:59:00,
2013-11-15 20:09:00,37.1,34.7,30.06,NNE,32,0.0,1.0,91,0.00,,,0.00,VWS V14.01,2013-11-16 01:09:00,
2013-11-15 20:19:00,36.9,34.8,30.06,NNE,32,0.0,1.0,92,0.00,,,0.00,VWS V14.01,2013-11-16 01:19:00,
2013-11-15 20:29:00,36.8,34.4,30.07,NNE,32,0.0,1.0,91,0.00,,,0.00,VWS V14.01,2013-11-16 01:29:00,
2013-11-15 20:39:00,36.7,34.3,30.07,NNE,32,0.0,1.0,91,0.00,,,0.00,VWS V14.01,2013-11-16 01:39:00,
2013-11-15 20:49:00,36.6,34.8,30.07,NNE,32,0.0,1.0,93,0.00,,,0.00,VWS V14.01,2013-11-16 01:49:00,
2013-11-15 20:59:00,36.6,34.5,30.07,NNE,32,0.0,0.0,92,0.00,,,0.00,VWS V14.01,2013-11-16 01:59:00,
2013-11-15 21:09:00,36.6,34.8,30.07,NNE,32,0.0,1.0,93,0.00,,,0.00,VWS V14.01,2013-11-16 02:09:00,
2013-11-15 21:19:00,36.5,34.4,30.07,NNE,32,0.0,1.0,92,0.00,,,0.00,VWS V14.01,2013-11-16 02:19:00,
2013-11-15 21:29:00,36.4,34.3,30.07,NNE,32,0.0,0.0,92,0.00,,,0.00,VWS V14.01,2013-11-16 02:29:00,
2013-11-15 21:39:00,36.4,34.6,30.07,NNE,32,0.0,0.0,93,0.00,,,0.00,VWS V14.01,2013-11-16 02:39:00,
2013-11-15 21:49:00,36.5,34.7,30.06,NNE,32,0.0,0.0,93,0.00,,,0.00,VWS V14.01,2013-11-16 02:49:00,
2013-11-15 21:59:00,36.1,34.0,30.07,NNE,32,0.0,0.0,92,0.00,,,0.00,VWS V14.01,2013-11-16 02:59:00,
2013-11-15 22:09:00,35.9,33.8,30.07,NNE,32,0.0,0.0,92,0.00,,,0.00,VWS V14.01,2013-11-16 03:09:00,
2013-11-15 22:19:00,35.3,33.2,30.07,NNE,32,0.0,0.0,92,0.00,,,0.00,VWS V14.01,2013-11-16 03:19:00,
2013-11-15 22:29:00,35.3,33.5,30.07,NNE,32,0.0,1.0,93,0.00,,,0.00,VWS V14.01,2013-11-16 03:29:00,
2013-11-15 22:39:00,35.2,33.4,30.07,NNE,32,0.0,1.0,93,0.00,,,0.00,VWS V14.01,2013-11-16 03:39:00,
2013-11-15 22:49:00,35.3,33.8,30.09,NNE,32,0.0,2.0,94,0.00,,,0.00,VWS V14.01,2013-11-16 03:49:00,
2013-11-15 22:59:00,35.7,34.4,30.09,NNE,32,1.0,1.0,95,0.00,,,0.00,VWS V14.01,2013-11-16 03:59:00,
2013-11-15 23:09:00,35.9,34.3,30.09,NNE,32,1.0,2.0,94,0.00,,,0.00,VWS V14.01,2013-11-16 04:09:00,
2013-11-15 23:19:00,35.9,34.3,30.10,NNE,32,0.0,1.0,94,0.00,,,0.00,VWS V14.01,2013-11-16 04:19:00,
2013-11-15 23:29:00,35.8,34.2,30.10,NNE,32,0.0,1.0,94,0.00,,,0.00,VWS V14.01,2013-11-16 04:29:00,
2013-11-15 23:39:00,35.7,33.9,30.10,NNE,32,0.0,1.0,93,0.00,,,0.00,VWS V14.01,2013-11-16 04:39:00,
2013-11-15 23:49:00,35.7,34.2,30.10,NNE,32,0.0,1.0,94,0.00,,,0.00,VWS V14.01,2013-11-16 04:49:00,
2013-11-15 23:59:00,35.6,34.0,30.10,NNE,32,0.0,1.0,94,0.00,,,0.00,VWS V14.01,2013-11-16 04:59:00,